Tiempo atmosférico en la estación meteorológica de Hellín, Albacete (520 m.)



Fecha
DESCASC
Temp. máxima en grados centígrados (hora)
DESCASC
Temp. mínima en grados centígrados (hora)
DESCASC
Temp. media en grados centígrados
DESCASC
Racha de viento máxima en m/sg (hora)
DESCASC
Velocidad máxima media en intervalos de 10 minutos(hora)
DESCASC
Precipitaciones diarias en mm
DESCASC
Precipitaciones de 00:00 a 06:00 en mm
DESCASC
Precipitaciones de 06:00 a 12:00 en mm
DESCASC
Precipitaciones de 12:00 a 18:00 en mm
DESCASC
Precipitaciones de 18:00 a 24:00 en mm
DESCASC
16-01-2020 16.6 (15:50) 3.6 (06:10) 10.1 5.56 (04:50) 3.33 (02:10) 0 0 0 0 0
15-01-2020 15.9 (15:30) 1.5 (07:20) 8.7 8.06 (16:10) 5 (16:30) 0 0 0 0 0
14-01-2020 13.7 (15:50) 1.7 (07:10) 7.7 9.17 (05:10) 5.83 (04:50) 0 0 0 0 0
13-01-2020 13.6 (15:30) -1 (08:10) 6.3 7.5 (20:00) 4.44 (23:59) 0 0 0 0 0
12-01-2020 13.3 (16:10) 0.6 (00:00) 7 9.17 (13:00) 4.72 (14:10) 0 0 0 0 0
11-01-2020 12.8 (16:10) 3.3 (00:00) 8.1 8.33 (03:50) 5 (07:00) 0 0 0 0 0
10-01-2020 11.9 (15:40) 4 (00:00) 7.9 11.67 (10:50) 7.22 (09:10) 0 0 0 0 0
09-01-2020 13.1 (16:00) 4.4 (00:00) 8.8 3.33 (11:00) 1.94 (02:50) 0 0 0 0 0
08-01-2020 16.1 (14:30) 4.2 (00:00) 10.2 5.28 (16:00) 3.33 (15:40) 0 0 0 0 0
07-01-2020 17.9 (16:50) 4.3 (00:00) 11.1 6.11 (09:10) 3.89 (00:40) 0 0 0 0 0
06-01-2020 15.3 (16:30) 1.1 (00:00) 8.2 7.5 (06:30) 3.89 (23:40) 0 0 0 0 0
05-01-2020 15.8 (16:10) 1.6 (00:00) 8.7 5.56 (07:50) 3.61 (05:10) 0 0 0 0 0
04-01-2020 12.6 (16:20) 2.1 (00:00) 7.4 6.94 (07:20) 5 (07:20) 0 0 0 0 0
03-01-2020 15.1 (15:10) -0.5 (-00:0) 7.3 10 (22:00) 6.11 (22:00) 0 0 0 0 0
02-01-2020 7.7 (14:50) -0.4 (00:00) 3.6 2.78 (15:20) 1.94 (01:10) 0.1 0 0 0 0.1
01-01-2020 16.1 (16:00) 0.4 (00:00) 8.3 5 (04:40) 2.78 (04:40) 0 0 0 0 0
31-12-2019 9 (17:00) 2.7 (00:00) 5.9 4.17 (06:20) 2.78 (06:10) 0 0 0 0 0
30-12-2019 12.1 (15:50) 4.8 (00:00) 8.5 5 (14:00) 2.5 (14:30) 0 0 0 0 0
29-12-2019 12.5 (16:40) 5.1 (00:00) 8.8 3.89 (08:30) 2.22 (13:00) 0.2 0.1 0.1 0 0
28-12-2019 16.8 (16:10) 3.3 (00:00) 10 5 (01:00) 3.06 (00:30) 0 0 0 0 0
27-12-2019 15.1 (16:30) 4.9 (00:00) 10 5.83 (23:30) 3.33 (23:30) 0 0 0 0 0
26-12-2019 18.9 (14:40) 9.3 (00:00) 14.1 8.33 (02:00) 4.72 (02:00) 0 0 0 0 0
25-12-2019 20.3 (16:20) 5.6 (00:00) 12.9 6.67 (23:30) 3.89 (23:30) 0 0 0 0 0
24-12-2019 20.4 (16:40) 6.4 (00:00) 13.4 5.56 (22:30) 3.61 (23:00) 0 0 0 0 0
23-12-2019 19.8 (16:10) 8.6 (00:00) 14.2 12.22 (01:30) 7.5 (01:30) 0 0 0 0 0
22-12-2019 17.1 (16:20) 11.7 (00:00) 14.4 25.83 (03:10) 12.78 (01:00) 0 0 0 0 0
21-12-2019 19.8 (14:40) 12.5 (00:00) 16.1 20.83 (21:50) 10.28 (21:40) 0.9 0.8 0.1 0 0
20-12-2019 16.5 (09:10) 11.5 (00:00) 14 13.89 (09:10) 6.94 (09:10) 8.9 0 3.1 1.8 4
19-12-2019 11.7 (23:59) 3.3 (03:50) 7.5 4.72 (04:40) 3.06 (04:50) 0.4 0 0 0.4 0

Gráficas

Temp. máximas Temp. mínimas Temp. medias Precipitaciones Rachas de viento máximas Velocidades máximas media en intervalos de 10 minutos

Datos horarios

Fecha y hora oficial Temperatura (ºC) Velocidad del viento (km/h) Dirección del viento Racha (km/h) Dirección de racha Precipitación (mm) Presión (hPa) Tendencia (hPa) Humedad (%)
2020-01-17 23:00:00 8 9 Oeste 14 Oeste 0 961.5 1.3 68
2020-01-17 22:00:00 7.6 3 Sudoeste 9 Sudoeste 0 961.1 1 68
2020-01-17 21:00:00 8.1 2 Sudoeste 14 Sudoeste 0 960.7 1.3 61
2020-01-17 20:00:00 9.9 8 Sudoeste 30 Sudoeste 0 960.2 1.5 55
2020-01-17 19:00:00 11.5 15 Oeste 28 Sudoeste 0 960.1 1.4 52
2020-01-17 18:00:00 12.6 10 Sudoeste 30 Sudoeste 0 959.4 0.5 50
2020-01-17 17:00:00 13.7 18 Sudoeste 32 Sudoeste 0 958.7 -0.4 46
2020-01-17 16:00:00 14.6 16 Sudoeste 35 Sudoeste 0 958.7 -1.1 45
2020-01-17 15:00:00 14.7 19 Sudoeste 32 Sudoeste 0 958.9 -1.4 45
2020-01-17 14:00:00 14.4 22 Sudoeste 38 Sur 0 959.1 -1.2 48
2020-01-17 13:00:00 15.1 25 Sudoeste 41 Sur 0 959.8 0.5 47
2020-01-17 12:00:00 14.3 0 Calma 24 Sudoeste 0 960.3 1.5 50
2020-01-17 11:00:00 12.8 10 Sudoeste 26 Sudoeste 0 960.3 1.9 52
2020-01-17 10:00:00 11.1 13 Sur 30 Sur 0 959.3 1.5 55
2020-01-17 09:00:00 8.1 8 Sudoeste 25 Sur 0 958.8 1.3 63
2020-01-17 08:00:00 5 7 Sur 12 Sudoeste 0 958.4 0.8 65
2020-01-17 07:00:00 5.9 8 Sudeste 19 Sur 0 957.8 -0.4 66
2020-01-17 06:00:00 4.9 3 Noroeste 6 Norte 0 957.5 -0.5 66
2020-01-17 05:00:00 5.4 0 Calma 9 Oeste 0 957.6 0 63
2020-01-17 04:00:00 5.4 0 Calma 10 Oeste 0 958.2 0.2 63
2020-01-17 03:00:00 4.7 2 Norte 9 Noroeste 0 958 0.1 67
2020-01-17 02:00:00 5.6 3 Sudoeste 8 Oeste 0 957.6 -0.3 66
2020-01-17 01:00:00 6 5 Oeste 10 Oeste 0 958 0.5 67
2020-01-17 00:00:00 6 3 Oeste 10 Oeste 0 957.9 0.8 66
2020-01-16 23:00:00 7.2 4 Oeste 10 Oeste 0 957.9 0.9 63
2020-01-16 22:00:00 7.4 7 Oeste 10 Oeste 0 957.5 1.2 66
2020-01-16 21:00:00 7.7 3 Oeste 7 Sur 0 957.1 1.3 63
2020-01-16 20:00:00 8.6 5 Sur 7 Sur 0 957 1.4 58
2020-01-16 19:00:00 10.3 0 Calma 5 Este 0 956.3 0.7 51
2020-01-16 18:00:00 14.1 4 Este 9 Este 0 955.8 0 40
2020-01-16 17:00:00 16 5 Nordeste 13 Este 0 955.6 -0.8 38
2020-01-16 16:00:00 16.3 9 Este 13 Este 0 955.6 -1.5 40
2020-01-16 15:00:00 15.9 5 Nordeste 12 Este 0 955.8 -2.2 44
2020-01-16 14:00:00 15.3 6 Este 11 Sudeste 0 956.4 -1.9 48
2020-01-16 13:00:00 14.2 5 Este 10 Este 0 957.1 -0.8 50
2020-01-16 12:00:00 13.1 2 Nordeste 6 Nordeste 0 958 0.2 53
2020-01-16 11:00:00 10.5 3 Este 9 Sudoeste 0 958.3 0.8 60
2020-01-16 10:00:00 6.9 0 Calma 9 Sudoeste 0 957.9 0.7 71
2020-01-16 09:00:00 4.4 5 Noroeste 16 Oeste 0 957.8 0.8 72
2020-01-16 08:00:00 4.2 8 Oeste 15 Oeste 0 957.5 0.2 72
2020-01-16 07:00:00 4.3 5 Sudoeste 12 Oeste 0 957.2 -0.4 72
2020-01-16 06:00:00 4.2 0 Calma 18 Sudoeste 0 957 -0.4 70
2020-01-16 05:00:00 4.7 11 Oeste 20 Oeste 0 957.3 0.1 71
2020-01-16 04:00:00 4.8 2 Sudoeste 15 Oeste 0 957.6 0.3 70
2020-01-16 03:00:00 5 10 Oeste 18 Oeste 0 957.4 -0.1 70
2020-01-16 02:00:00 5.8 10 Oeste 16 Oeste 0 957.2 -0.2 67
2020-01-16 01:00:00 5.6 5 Oeste 13 Oeste 0 957.3 0.3 65
2020-01-16 00:00:00 6.7 4 Noroeste 13 Oeste 0 957.5 0.8 59
2020-01-15 23:00:00 7.4 9 Oeste 18 Oeste 0 957.4 0.8 57
2020-01-15 22:00:00 8.1 9 Oeste 18 Oeste 0 957 0.8 55
2020-01-15 21:00:00 8.5 6 Oeste 10 Oeste 0 956.7 1.1 52
2020-01-15 20:00:00 10.3 6 Oeste 17 Sudoeste 0 956.6 1.5 45
2020-01-15 19:00:00 12.4 10 Sudoeste 19 Sudoeste 0 956.2 1.4 40
2020-01-15 18:00:00 13.6 14 Sudoeste 26 Oeste 0 955.6 1 37
2020-01-15 17:00:00 15.3 14 Sudoeste 29 Sudoeste 0 955.1 -0.1 35
2020-01-15 16:00:00 15.6 16 Sudoeste 28 Sudoeste 0 954.8 -0.6 35
2020-01-15 15:00:00 14.9 4 Nordeste 13 Este 0 954.6 -1.4 42
2020-01-15 14:00:00 13.6 0 Calma 10 Este 0 955.2 -0.6 47
2020-01-15 13:00:00 12.1 3 Nordeste 9 Este 0 955.4 0.4 53
2020-01-15 12:00:00 9.9 3 Nordeste 7 Nordeste 0 956 1.4 63
2020-01-15 11:00:00 7.7 4 Nordeste 8 Nordeste 0 955.8 1.9 74
2020-01-15 10:00:00 4.3 0 Calma 4 Sudeste 0 955 1.5 87
2020-01-15 09:00:00 2.3 0 Calma 14 Sudoeste 0 954.6 1.5 86
2020-01-15 08:00:00 2.1 0 Calma 9 Sudoeste 0 953.9 1 84
2020-01-15 07:00:00 2 3 Norte 6 Norte 0 953.5 0.5 79
2020-01-15 06:00:00 3.6 5 Noroeste 22 Oeste 0 953.1 0.2 76
2020-01-15 05:00:00 2.9 8 Noroeste 14 Oeste 0 952.9 0.1 76
2020-01-15 04:00:00 3.4 6 Oeste 10 Oeste 0 953 -0.1 72
2020-01-15 03:00:00 2.6 2 Sudoeste 13 Oeste 0 952.9 -0.2 70
2020-01-15 02:00:00 3.8 7 Oeste 13 Noroeste 0 952.8 0 66
2020-01-15 01:00:00 4.3 6 Oeste 14 Sudoeste 0 953.1 0.3 64
2020-01-15 00:00:00 3.9 4 Oeste 9 Oeste 0 953.1 0.5 66
2020-01-14 23:00:00 5 0 Calma 15 Sudoeste 0 952.8 0.4 63
2020-01-14 22:00:00 6 4 Oeste 15 Sudoeste 0 952.8 1.1 64
2020-01-14 21:00:00 6.1 7 Oeste 19 Oeste 0 952.6 1.6 64
2020-01-14 20:00:00 6.8 4 Oeste 9 Noroeste 0 952.4 1.5 63
2020-01-14 19:00:00 7.9 5 Noroeste 12 Oeste 0 951.7 1.1 57
2020-01-14 18:00:00 10.5 5 Oeste 10 Noroeste 0 951 0.4 46
2020-01-14 17:00:00 12.1 5 Noroeste 13 Oeste 0 950.9 -0.3 42
2020-01-14 16:00:00 13 6 Noroeste 16 Sur 0 950.6 -1.5 39
2020-01-14 15:00:00 13 6 Oeste 14 Oeste 0 950.6 -2.2 39
2020-01-14 14:00:00 12.5 4 Oeste 13 Sudeste 0 951.2 -2 42
2020-01-14 13:00:00 11.8 5 Sudoeste 14 Sudoeste 0 952.1 -0.9 46
2020-01-14 12:00:00 10 10 Sudoeste 18 Sudoeste 0 952.8 0.4 54
2020-01-14 11:00:00 7.8 10 Sudoeste 15 Sudoeste 0 953.2 0.8 59
2020-01-14 10:00:00 4.7 9 Oeste 17 Sudoeste 0 953 0.9 66
2020-01-14 09:00:00 3 12 Sudoeste 27 Oeste 0 952.4 0.7 70
2020-01-14 08:00:00 2.3 14 Oeste 23 Sudoeste 0 952.4 0.7 70
2020-01-14 07:00:00 1.8 14 Oeste 26 Oeste 0 952.1 0.2 67
2020-01-14 06:00:00 3.5 19 Sudoeste 33 Sudoeste 0 951.7 -0.2 63
2020-01-14 05:00:00 3.5 19 Sudoeste 32 Sudoeste 0 951.7 -0.2 63
2020-01-14 04:00:00 3 12 Sudoeste 19 Sudoeste 0 951.9 -0.6 57
2020-01-14 03:00:00 3.8 8 Noroeste 18 Oeste 0 951.9 -0.9 53
2020-01-14 02:00:00 4.6 10 Oeste 24 Sudoeste 0 951.9 -1.1 53
2020-01-14 01:00:00 5.4 14 Sudoeste 24 Oeste 0 952.5 -0.6 53
2020-01-14 00:00:00 6 16 Sudoeste 24 Oeste 0 952.8 -0.6 55
2020-01-13 23:00:00 5.8 8 Oeste 18 Oeste 0 953 -0.4 55
2020-01-13 22:00:00 6.7 9 Oeste 13 Oeste 0 953.1 0 51
2020-01-13 21:00:00 7.6 7 Oeste 21 Oeste 0 953.4 0.7 49
2020-01-13 20:00:00 9.1 15 Sudoeste 27 Sudoeste 0 953.4 1 45
2020-01-13 19:00:00 9.2 12 Oeste 19 Oeste 0 953.1 0.5 45
2020-01-13 18:00:00 11.7 0 Calma 6 Sur 0 952.7 -0.4 37
2020-01-13 17:00:00 13 2 Sudeste 9 Sudeste 0 952.4 -1.4 35
2020-01-13 16:00:00 13.3 5 Sudeste 11 Este 0 952.6 -2.2 34
2020-01-13 15:00:00 13.4 5 Este 10 Este 0 953.1 -2.9 36
2020-01-13 14:00:00 12.6 2 Este 10 Este 0 953.8 -2.5 40
2020-01-13 13:00:00 11.6 5 Sudeste 9 Este 0 954.8 -1.3 45
2020-01-13 12:00:00 9 3 Oeste 10 Oeste 0 956 0 49
2020-01-13 11:00:00 6.8 4 Este 11 Oeste 0 956.3 0.3 58
2020-01-13 10:00:00 3.6 3 Oeste 13 Oeste 0 956.1 0.3 68
2020-01-13 09:00:00 0.4 5 Oeste 11 Oeste 0 956 0 76
2020-01-13 08:00:00 -0.8 2 Oeste 9 Oeste 0 956 -0.3 74
2020-01-13 07:00:00 0.4 9 Oeste 13 Oeste 0 955.8 -1 73
2020-01-13 06:00:00 0.2 5 Oeste 9 Oeste 0 956 -1.2 72
2020-01-13 05:00:00 0.7 4 Noroeste 11 Oeste 0 956.3 -1.2 70
2020-01-13 04:00:00 1.1 6 Oeste 17 Oeste 0 956.8 -1.5 69
2020-01-13 03:00:00 1.6 8 Oeste 12 Oeste 0 957.2 -1.8 67
2020-01-13 02:00:00 2 6 Oeste -- -- -- 957.5 -1.5 67
2020-01-13 01:00:00 2.2 7 Oeste 10 Oeste 0 958.3 -0.3 66
2020-01-13 00:00:00 2.7 0 Calma 6 Oeste 0 959 0.5 61
2020-01-12 23:00:00 4 0 Calma 11 Oeste 0 959 0.7 56
2020-01-12 22:00:00 5.1 4 Norte 19 Oeste 0 958.6 1 50
2020-01-12 21:00:00 6.5 10 Oeste 19 Oeste 0 958.5 1 47
2020-01-12 20:00:00 6.9 8 Oeste 17 Sudoeste 0 958.3 1.1 45
2020-01-12 19:00:00 8.4 7 Oeste 14 Oeste 0 957.6 0.4 40
2020-01-12 18:00:00 10.1 7 Oeste 18 Oeste 0 957.5 0.4 36
2020-01-12 17:00:00 12.3 12 Oeste 19 Oeste 0 957.2 -0.4 32
2020-01-12 16:00:00 13.1 12 Sudoeste 25 Oeste 0 957.2 -1.2 32
2020-01-12 15:00:00 13 11 Sudoeste 28 Sudoeste 0 957.1 -2.4 34
2020-01-12 14:00:00 12.3 16 Sudoeste 30 Sudoeste 0 957.6 -1.9 37
2020-01-12 13:00:00 11.7 14 Sudoeste 33 Sudoeste 0 958.4 -1.1 41
2020-01-12 12:00:00 10.7 13 Sudoeste 23 Oeste 0 959.5 0.6 46
2020-01-12 11:00:00 8.3 13 Sudoeste 23 Sudoeste 0 959.5 0.7 53
2020-01-12 10:00:00 5.8 2 Oeste 12 Oeste 0 959.5 0.8 61
2020-01-12 09:00:00 3.2 6 Oeste 13 Oeste 0 958.9 0.2 66
2020-01-12 08:00:00 0.6 0 Calma 7 Oeste 0 958.8 0 69
2020-01-12 07:00:00 2.6 2 Oeste 11 Oeste 0 958.7 -0.4 68
2020-01-12 06:00:00 2.5 7 Oeste 15 Oeste 0 958.7 -0.5 69
2020-01-12 05:00:00 2.8 9 Oeste 14 Oeste 0 958.8 -0.2 71
2020-01-12 04:00:00 2.5 7 Oeste 14 Sudoeste 0 959.1 -0.1 68
2020-01-12 03:00:00 4.8 10 Sudoeste 22 Sudoeste 0 959.2 -0.3 63
2020-01-12 02:00:00 2.9 8 Oeste 15 Sur 0 959 -0.6 66
2020-01-12 01:00:00 3.7 6 Sudoeste 15 Sur 0 959.2 -0.2 65
2020-01-12 00:00:00 3.5 0 Calma 13 Oeste 0 959.5 0.2 65
2020-01-11 23:00:00 4 6 Oeste 11 Oeste 0 959.6 0.4 63
2020-01-11 22:00:00 5.4 5 Sudoeste 21 Oeste 0 959.4 0.6 57
2020-01-11 21:00:00 6.6 9 Sudoeste 15 Oeste 0 959.3 1 53
2020-01-11 20:00:00 7 5 Oeste 13 Oeste 0 959.2 1.1 51
2020-01-11 19:00:00 7.8 6 Oeste 11 Oeste 0 958.8 0.8 47
2020-01-11 18:00:00 10.3 4 Oeste 12 Oeste 0 958.3 0.1 40
2020-01-11 17:00:00 12 6 Noroeste 14 Oeste 0 958.1 -0.4 38
2020-01-11 16:00:00 12.5 4 Oeste 14 Noroeste 0 958 -1.4 39
2020-01-11 15:00:00 12.4 2 Oeste 16 Noroeste 0 958.2 -2.2 42
2020-01-11 14:00:00 11.8 2 Noroeste 16 Oeste 0 958.5 -1.9 45
2020-01-11 13:00:00 10.9 5 Oeste 18 Sudoeste 0 959.4 -0.4 47
2020-01-11 12:00:00 9.4 10 Sudoeste 22 Sudoeste 0 960.4 1.4 57
2020-01-11 11:00:00 7.4 12 Oeste 21 Oeste 0 960.4 1.7 61
2020-01-11 10:00:00 4.8 10 Oeste 23 Oeste 0 959.8 1.4 70
2020-01-11 09:00:00 3.6 9 Sudoeste 24 Sudoeste 0 959 0.9 73
2020-01-11 08:00:00 3.6 9 Sudoeste 20 Sudoeste 0 958.7 0.6 72
2020-01-11 07:00:00 3.9 18 Oeste 26 Oeste 0 958.4 0.4 71
2020-01-11 06:00:00 4.3 14 Oeste 23 Sudoeste 0 958.1 0.1 71
2020-01-11 05:00:00 4.8 15 Oeste 23 Sudoeste 0 958.1 0.6 70
2020-01-11 04:00:00 5 14 Sudoeste 30 Oeste 0 958 0.6 70
2020-01-11 03:00:00 4.3 17 Sudoeste 27 Sudoeste 0 958 -0.2 72
2020-01-11 02:00:00 4.2 12 Sudoeste 19 Sudoeste 0 957.5 -0.1 77
2020-01-11 01:00:00 3.9 4 Oeste 20 Oeste 0 957.4 0.4 78
2020-01-11 00:00:00 4.2 6 Oeste 15 Oeste 0 958.2 1.6 78
2020-01-10 23:00:00 4.7 6 Oeste 10 Sudoeste 0 957.6 1.4 78
2020-01-10 22:00:00 5.5 0 Calma 22 Oeste 0 957 1.7 71
2020-01-10 21:00:00 5.7 9 Oeste 15 Oeste 0 956.6 2.3 67
2020-01-10 20:00:00 7.1 8 Noroeste 18 Oeste 0 956.2 1.9 57
2020-01-10 19:00:00 8.6 11 Oeste 22 Oeste 0 955.3 1.7 44
2020-01-10 18:00:00 9.8 10 Oeste 23 Oeste 0 954.3 0.6 40
2020-01-10 17:00:00 11.2 11 Oeste 31 Oeste 0 954.3 0.4 38
2020-01-10 16:00:00 11.6 18 Oeste 31 Sudoeste 0 953.6 -0.9 41
2020-01-10 15:00:00 11.2 15 Oeste 34 Oeste 0 953.7 -1.4 47
2020-01-10 14:00:00 10.9 18 Oeste 36 Oeste 0 953.9 -1.2 49
2020-01-10 13:00:00 10.4 15 Oeste 30 Oeste 0 954.5 -0.3 53
2020-01-10 12:00:00 8.7 10 Noroeste 40 Sudoeste 0 955.1 1.4 67
2020-01-10 11:00:00 7.4 22 Sudoeste 42 Sudoeste 0 955.1 1.8 78
2020-01-10 10:00:00 8.1 25 Oeste 40 Oeste 0 954.8 1.8 75
2020-01-10 09:00:00 8.2 24 Oeste 37 Oeste 0 953.7 0.5 75
2020-01-10 08:00:00 6.2 7 Oeste 28 Sur 0 953.3 0.1 81
2020-01-10 07:00:00 4.8 3 Sur 14 Sudoeste 0 953 -0.2 82
2020-01-10 06:00:00 6.2 5 Oeste 21 Oeste 0 953.2 -0.1 78
2020-01-10 05:00:00 6.6 8 Oeste 25 Sudoeste 0 953.2 0 78
2020-01-10 04:00:00 5.9 11 Oeste 15 Oeste 0 953.2 -0.2 82
2020-01-10 03:00:00 4.5 0 Calma 10 Oeste 0 953.3 -1.2 91
2020-01-10 02:00:00 4.8 8 Oeste 10 Oeste 0 953.2 -1.6 91
2020-01-10 01:00:00 4.7 0 Calma 11 Oeste 0 953.4 -0.7 88
2020-01-10 00:00:00 6 6 Oeste 12 Oeste 0 954.5 -0.1 87
2020-01-09 23:00:00 5.8 6 Oeste 9 Oeste 0 954.8 -0.6 87
2020-01-09 22:00:00 5.8 0 Calma 3 Este 0 954.1 -1 84
2020-01-09 21:00:00 6.6 2 Norte 5 Sur 0 954.6 0.1 80
2020-01-09 20:00:00 7.6 0 Calma 6 Sur 0 955.4 0.9 74
2020-01-09 19:00:00 8.6 3 Sur 5 Sur 0 955.1 0.6 65
2020-01-09 18:00:00 10.8 2 Este 9 Este 0 954.5 -0.5 56
2020-01-09 17:00:00 12.7 3 Nordeste 9 Este 0 954.5 -1.1 52
2020-01-09 16:00:00 12.7 4 Nordeste 9 Nordeste 0 954.5 -2 54
2020-01-09 15:00:00 12.1 2 Nordeste 10 Nordeste 0 955 -2.4 55
2020-01-09 14:00:00 10.6 2 Norte 11 Este 0 955.6 -2.1 63
2020-01-09 13:00:00 10 4 Este 11 Este 0 956.5 -1.1 71
2020-01-09 12:00:00 7.7 3 Sudeste 11 Este 0 957.4 0.1 88
2020-01-09 11:00:00 7 5 Sudeste 12 Sudeste 0 957.7 0.5 98
2020-01-09 10:00:00 6.3 2 Sudeste 6 Este 0 957.6 0.4 98
2020-01-09 09:00:00 5.7 0 Calma 3 Oeste 0 957.3 -0.1 98
2020-01-09 08:00:00 5.3 0 Calma 2 Este 0 957.2 -0.3 98
2020-01-09 07:00:00 5.1 0 Calma 6 Sudeste 0 957.2 -0.7 98
2020-01-09 06:00:00 5.5 0 Calma 3 Norte 0 957.4 -0.8 97
2020-01-09 05:00:00 5.6 0 Calma 5 Sudoeste 0 957.5 -0.8 97
2020-01-09 04:00:00 5 0 Calma 5 Oeste 0 957.9 -0.6 97
2020-01-09 03:00:00 5.3 5 Oeste 10 Oeste 0 958.2 -0.7 97
2020-01-09 02:00:00 5.9 4 Oeste 8 Oeste 0 958.3 -0.7 95
2020-01-09 01:00:00 5.2 3 Noroeste 7 Oeste 0 958.5 -0.6 94
2020-01-09 00:00:00 5 4 Oeste 7 Noroeste 0 958.9 -0.1 92
2020-01-08 23:00:00 5.4 3 Oeste 5 Oeste 0 959 0.4 90
2020-01-08 22:00:00 6.1 0 Calma 3 Noroeste 0 959.1 0.8 86
2020-01-08 21:00:00 6.4 2 Oeste 6 Sudoeste 0 959 1 80
2020-01-08 20:00:00 7.4 2 Sur 5 Sur 0 958.6 0.7 70
2020-01-08 19:00:00 9.3 0 Calma 11 Nordeste 0 958.3 0.8 61
2020-01-08 18:00:00 11.7 6 Este 14 Este 0 958 0.5 47
2020-01-08 17:00:00 14.4 8 Este 17 Este 0 957.9 0.3 37
2020-01-08 16:00:00 15.2 11 Este 19 Este 0 957.5 -0.4 35
2020-01-08 15:00:00 15.7 9 Este 17 Este 0 957.5 -1 35
2020-01-08 14:00:00 15.8 10 Este 18 Norte 0 957.6 -1.3 36
2020-01-08 13:00:00 14.6 5 Norte 12 Norte 0 957.9 -0.5 36
2020-01-08 12:00:00 13.1 4 Oeste 12 Oeste 0 958.5 0.5 39
2020-01-08 11:00:00 10.9 6 Noroeste 14 Oeste 0 958.9 1.6 41
2020-01-08 10:00:00 7.9 7 Oeste 17 Noroeste 0 958.4 1.4 45
2020-01-08 09:00:00 5.4 6 Oeste 13 Oeste 0 958 0.7 48
2020-01-08 08:00:00 5.2 3 Oeste 15 Sudoeste 0 957.3 0 47
2020-01-08 07:00:00 5.9 3 Oeste 10 Oeste 0 957 -0.5 45
2020-01-08 06:00:00 7.2 6 Oeste 16 Noroeste 0 957.3 -0.3 43
2020-01-08 05:00:00 7.7 6 Oeste 14 Oeste 0 957.3 -0.4 41
2020-01-08 04:00:00 6.9 4 Oeste 10 Oeste 0 957.5 -0.4 41
2020-01-08 03:00:00 7.3 5 Oeste 13 Oeste 0 957.6 -0.6 40
2020-01-08 02:00:00 8.6 6 Oeste 15 Oeste 0 957.7 -0.9 40
2020-01-08 01:00:00 8 11 Oeste 15 Oeste 0 957.9 -0.8 45
2020-01-08 00:00:00 7.1 8 Oeste 11 Oeste 0 958.2 -0.4 47
2020-01-07 23:00:00 8.2 8 Sudoeste 11 Sudoeste 0 958.6 0.1 47
2020-01-07 22:00:00 8.1 9 Oeste 14 Oeste 0 958.7 0.6 49
2020-01-07 21:00:00 7.4 2 Sur 9 Sudoeste 0 958.6 0.5 50
2020-01-07 20:00:00 8.9 3 Sur 12 Sudoeste 0 958.5 1.1 46
2020-01-07 19:00:00 10.7 5 Sur 15 Sudoeste 0 958.1 0.9 44
2020-01-07 18:00:00 13.9 2 Sur 9 Sur 0 958.1 0.5 37
2020-01-07 17:00:00 17.5 3 Este 17 Oeste 0 957.4 -0.9 30
2020-01-07 16:00:00 17.5 10 Oeste 19 Sudoeste 0 957.2 -2.2 26
2020-01-07 15:00:00 16.8 5 Este 12 Este 0 957.6 -2.4 36
2020-01-07 14:00:00 15.7 5 Sudeste 9 Sudeste 0 958.3 -2 40
2020-01-07 13:00:00 14.2 4 Este 10 Este 0 959.4 -0.7 44
2020-01-07 12:00:00 12.9 3 Este 11 Noroeste 0 960 0.4 46
2020-01-07 11:00:00 10.3 8 Oeste 17 Oeste 0 960.3 1.1 50
2020-01-07 10:00:00 7.1 12 Oeste 22 Oeste 0 960.1 1 58
2020-01-07 09:00:00 5.6 11 Oeste 20 Oeste 0 959.6 0.7 61
2020-01-07 08:00:00 4.9 8 Oeste 15 Oeste 0 959.2 0.1 64
2020-01-07 07:00:00 4.3 11 Oeste 18 Oeste 0 959.1 -0.2 66
2020-01-07 06:00:00 5.2 9 Oeste 15 Oeste 0 958.9 -0.2 64
2020-01-07 05:00:00 6.1 9 Oeste 14 Oeste 0 959.1 0.2 61
2020-01-07 04:00:00 5.4 9 Oeste 15 Sudoeste 0 959.3 0.5 61
2020-01-07 03:00:00 6.2 11 Oeste 17 Oeste 0 959.1 0.3 61
2020-01-07 02:00:00 6.1 7 Oeste 19 Sudoeste 0 958.9 0.3 64
2020-01-07 01:00:00 6.4 12 Oeste 19 Oeste 0 958.8 0.4 66
2020-01-07 00:00:00 6.5 13 Oeste 20 Oeste 0 958.8 0.7 65
2020-01-06 23:00:00 6.4 11 Oeste 17 Oeste 0 958.6 0.7 63
2020-01-06 22:00:00 6.2 6 Oeste 11 Sudoeste 0 958.4 0.9 61
2020-01-06 21:00:00 6.9 4 Oeste 9 Sudoeste 0 958.1 1 60
2020-01-06 20:00:00 7 0 Calma 8 Sur 0 957.9 1.1 58
2020-01-06 19:00:00 8.6 4 Sur 6 Sur 0 957.5 1 50
2020-01-06 18:00:00 11.8 2 Sudeste 8 Este 0 957.1 0.7 39
2020-01-06 17:00:00 14.5 4 Este 8 Este 0 956.8 -0.1 34
2020-01-06 16:00:00 14.9 5 Este 9 Nordeste 0 956.5 -1.1 35
2020-01-06 15:00:00 14.9 3 Nordeste 10 Nordeste 0 956.4 -2.2 37
2020-01-06 14:00:00 13.8 5 Este 9 Este 0 956.9 -1.8 42
2020-01-06 13:00:00 12.4 3 Este 8 Este 0 957.6 -0.9 53
2020-01-06 12:00:00 10.1 3 Nordeste 8 Este 0 958.6 0.2 63
2020-01-06 11:00:00 7.8 3 Este 6 Este 0 958.7 0.9 75
2020-01-06 10:00:00 4.9 0 Calma 7 Noroeste 0 958.5 1.1 88